Spearfish, SD (57783)

11:46 PM MDT on July 26, 2016 (GMT -0600)
TMWC | | Change Station

Elev 3685 ft 44.49 °N, 103.87 °W | Updated 4 seconds ago

Partly Cloudy
Partly Cloudy
69.8 °F
Feels Like 69.8 °F
N
8.1
Wind Variable Wind from SE
Gusts 8.1 mph

Today
High -- | Low -- °F
--% Chance of Precip.
Yesterday
High -- | Low -- °F
Precip. -- in
Pressure 30.16 in
Visibility 10.0 miles
Clouds Few 1400 ft
Dew Point 62 °F
Humidity 75%
Rainfall 0.00 in
Snow Depth Not available.
5:36 AM 8:26 PM
Waning Gibbous, 47% visible
METAR KSPF 270515Z AUTO 09011KT 10SM FEW014 19/17 A3016 RMK AO2
Pressure 30.16 in
Visibility 10.0 miles
Clouds Few 1400 ft
Dew Point 62 °F
Humidity 75%
Rainfall 0.00 in
Snow Depth Not available.
5:36 AM 8:26 PM
Waning Gibbous, 47% visible
METAR KSPF 270515Z AUTO 09011KT 10SM FEW014 19/17 A3016 RMK AO2

10-Day Weather Forecast

Almanac

Astronomy

Jul. 26, 2016 Rise Set
Actual Time
Civil Twilight
Nautical Twilight
Astronomical Twilight
Moon
Length of Visible Light
Length of Day
Tomorrow will be .
, % of the Moon is Illuminated

Today's Extremes

State Highs State Lows

Community

WunderPhotos

Upload Photos

1,927,818 photos uploaded!

WunderBlog® & News

Nearby

Air Quality

  Air Quality AQ Index Pollutant
Not available.

Snow Depth

Station Depth Elevation

Earthquake Activity

City Distance Mag. Time & Date
Minimum magnitude displayed is 2.5.

Coastal Water Temperatures

Place Temperature

Stations

Nearby Weather Stations

Station Location Temp. Windchill Dew Point Humidity Wind Precip. Elev Updated Type
                   

Watches & Warnings

There are currently no watches in effect.